AirNav   Everest Fuels
 
 1279 users online  

6GA4 Spring Valley Farm Airport
Loganville, Georgia, USA

GOING TO LOGANVILLE?


FAA INFORMATION EFFECTIVE 04 NOVEMBER 2021

Location

FAA Identifier: 6GA4
Lat/Long: 33-47-49.3980N 083-51-04.6510W
33-47.823300N 083-51.077517W
33.7970550,-83.8512919
(estimated)
Elevation: 920 ft. / 280 m (estimated)
Variation: 02W (1985)
From city: 3 miles SE of LOGANVILLE, GA
Time zone: UTC -4 (UTC -5 during Standard Time)
Zip code: 30052

Airport Operations

Airport use: Private use. Permission required prior to landing
Activation date: 08/1979
Control tower: no
ARTCC: ATLANTA CENTER
FSS: MACON FLIGHT SERVICE STATION
Attendance: UNATNDD
Wind indicator: yes
Segmented circle: no

Airport Communications

WX AWOS-3PT at D73 (8 nm E): 120.825 (678-635-3668)
WX AWOS-3 at CVC (10 nm S): 118.725 (770-385-7057)
WX AWOS-3PT at LZU (12 nm NW): PHONE 770-339-7753
WX AWOS-3 at WDR (14 nm NE): 118.575 (770-868-0642)

Nearby radio navigation aids

VOR radial/distance  VOR name  Freq  Var
PDKr107/22.8PEACHTREE VOR/DME116.6005W
AHNr251/27.7ATHENS VOR/DME109.6000E
ATLr076/30.8ATLANTA VORTAC116.9005W

 
NDB name  Hdg/Dist  Freq  Var  ID
ALCOVY344/10.637003WVOF ...- --- ..-.
GWNET183/13.441905WTX - -..-
BARROW COUNTY243/15.540405WBMW -... -- .--
FLOWERY BRANCH177/24.536503WFKV ..-. -.- ...-

Airport Services

Runway Information

Runway 6/24

Dimensions: 3000 x 100 ft. / 914 x 30 m
Surface: turf
RUNWAY 6  RUNWAY 24
Traffic pattern: rightleft
Obstructions: trees, 40 ft. from runwaynone

Airport Ownership and Management from official FAA records

Ownership: Privately-owned
Owner: SPRING VALLEY FARM ASSOC, INC
P.O. BOX 728
LOGANVILLE, GA 30249
Phone 770-466-2649
Manager: RICHARD NEALE
P.O. BOX 728
LOGANVILLE, GA 30249
Phone 770-466-2649

Airport Operational Statistics

Aircraft based on the field: 10
Single engine airplanes: 8
Multi engine airplanes: 1
Ultralights: 1
    

Instrument Procedures

There are no published instrument procedures at 6GA4.

Some nearby airports with instrument procedures:

D73 - Cy Nunnally Memorial Airport (8 nm E)
KCVC - Covington Municipal Airport (10 nm S)
KLZU - Gwinnett County Airport-Briscoe Field (12 nm NW)
KWDR - Barrow County Airport (14 nm NE)
52A - Madison Municipal Airport (22 nm SE)
 
Loc | Ops | Rwys | IFR | FBO | Links
Com | Nav | Svcs | Stats | Notes
Area around 6GA4 (Spring Valley Farm Airport)
 
Road maps at: MapQuest Bing Google
 
Aerial photo
WARNING: Photo may not be current or correct
Aerial photo of 6GA4 (Spring Valley Farm Airport)
Do you have a better or more recent aerial photo of Spring Valley Farm Airport that you would like to share? If so, please send us your photo.

 
Sectional chart

 
Airport distance calculator
Flying to Spring Valley Farm Airport? Find the distance to fly.

From to 6GA4

Sunrise and sunset
Times for 28-Nov-2021
 Local
(UTC-5)
 Zulu
(UTC)
Morning civil twilight06:5311:53
Sunrise07:2112:21
Sunset17:2622:26
Evening civil twilight17:5322:53

Current date and time
Zulu (UTC)  28-Nov-2021 19:58:42
Local (UTC-5)  28-Nov-2021 14:58:42
 
METAR
KD73 
8nm E 
281935Z AUTO 29005KT 10SM CLR 14/00 A2995 RMK AO2 T01400004
KCVC 
10nm S 
281939Z AUTO 27006KT 10SM CLR 13/00 A2995 RMK AO2
KLZU 
13nm NW 
281856Z 26007KT 10SM CLR 13/01 A2996 RMK AO2 SLP157 T01330006
KWDR 
14nm NE 
281935Z AUTO 30005KT 10SM CLR 15/M01 A2996 RMK AO2
TAF
KPDK 
23nm W 
281738Z 2818/2918 29007KT P6SM BKN250 FM290200 32006KT P6SM FEW250 FM291500 34009G19KT P6SM SKC
KAHN 
27nm E 
281738Z 2818/2918 28006KT P6SM BKN250 FM290000 29006KT P6SM FEW250 FM291500 02004KT P6SM SKC FM291700 33004KT P6SM SKC
NOTAMs
Click for the latest NOTAMs
NOTAMs are issued by the DoD/FAA and will open in a separate window not controlled by AirNav.

 

 
 

Would you like to see your business listed on this page?

 If your business provides an interesting product or service to pilots, flight crews, aircraft, or users of the Spring Valley Farm Airport, you should consider listing it here.  To start the listing process, click on the button below
 
Add a business
 

Other Pages about Spring Valley Farm Airport

springvalley.home.mindspring.com
www16.brinkster.com/...
 
Update a link
 
Copyright © AirNav, LLC. All rights reserved. Privacy Policy  Contact